createdAt,value
2023-09-08T00:00:36.723Z,20.50
2023-09-08T00:03:04.794Z,20.10
2023-09-08T00:05:33.048Z,20.40
2023-09-08T00:08:01.216Z,20.60
2023-09-08T00:10:30.622Z,20.40
2023-09-08T00:12:58.446Z,20.50
2023-09-08T00:15:26.492Z,20.40
2023-09-08T00:17:54.566Z,20.30
2023-09-08T00:20:22.522Z,20.30
2023-09-08T00:22:51.176Z,20.30
2023-09-08T00:25:19.181Z,20.30
2023-09-08T00:27:48.393Z,20.30
2023-09-08T00:30:16.586Z,20.30
2023-09-08T00:32:44.834Z,20.40
2023-09-08T00:35:14.688Z,20.50
2023-09-08T00:37:43.434Z,20.20
2023-09-08T00:40:12.559Z,20.10
2023-09-08T00:42:40.489Z,20.10
2023-09-08T00:45:10.892Z,20.10
2023-09-08T00:47:39.060Z,20.10
2023-09-08T00:50:09.417Z,20.00
2023-09-08T00:52:37.573Z,20.00
2023-09-08T00:55:06.352Z,20.00
2023-09-08T00:57:35.095Z,20.00
2023-09-08T01:00:05.213Z,20.00
2023-09-08T01:02:34.611Z,20.00
2023-09-08T01:05:03.647Z,20.20
2023-09-08T01:07:33.530Z,19.90
2023-09-08T01:10:05.246Z,20.00
2023-09-08T01:12:34.301Z,19.90
2023-09-08T01:15:02.352Z,19.90
2023-09-08T01:17:30.605Z,19.90
2023-09-08T01:20:04.449Z,19.90
2023-09-08T01:22:47.670Z,19.90
2023-09-08T01:25:23.614Z,20.00
2023-09-08T01:27:54.155Z,20.10
2023-09-08T01:30:24.037Z,19.80
2023-09-08T01:32:53.087Z,19.80
2023-09-08T01:35:21.847Z,19.50
2023-09-08T01:37:50.915Z,19.80
2023-09-08T01:40:21.133Z,19.90
2023-09-08T01:42:50.386Z,19.80
2023-09-08T01:45:18.674Z,19.60
2023-09-08T01:47:46.716Z,19.70
2023-09-08T01:50:15.691Z,19.70
2023-09-08T01:52:43.662Z,19.70
2023-09-08T01:55:13.377Z,19.70
2023-09-08T01:57:42.793Z,19.70
2023-09-08T02:00:12.101Z,19.70
2023-09-08T02:02:40.096Z,19.60
2023-09-08T02:05:09.169Z,19.50
2023-09-08T02:07:37.271Z,19.60
2023-09-08T02:10:05.682Z,19.60
2023-09-08T02:12:33.842Z,19.50
2023-09-08T02:15:03.491Z,19.30
2023-09-08T02:17:31.447Z,19.70
2023-09-08T02:19:59.418Z,19.50
2023-09-08T02:22:27.405Z,19.40
2023-09-08T02:24:57.758Z,19.40
2023-09-08T02:27:25.673Z,19.40
2023-09-08T02:29:54.083Z,19.20
2023-09-08T02:32:23.448Z,19.30
2023-09-08T02:34:51.454Z,18.70
2023-09-08T02:37:20.285Z,18.70
2023-09-08T02:39:48.501Z,19.30
2023-09-08T02:42:16.540Z,19.60
2023-09-08T02:44:45.693Z,19.40
2023-09-08T02:47:13.642Z,19.20
2023-09-08T02:49:44.536Z,19.30
2023-09-08T02:52:12.493Z,19.20
2023-09-08T02:54:40.733Z,19.50
2023-09-08T02:57:08.721Z,19.20
2023-09-08T02:59:36.682Z,19.20
2023-09-08T03:02:05.195Z,19.10
2023-09-08T03:04:33.438Z,19.20
2023-09-08T03:07:02.859Z,19.10
2023-09-08T03:09:30.800Z,19.10
2023-09-08T03:11:58.776Z,19.10
2023-09-08T03:14:26.784Z,19.10
2023-09-08T03:16:54.698Z,19.10
2023-09-08T03:19:22.858Z,19.20
2023-09-08T03:21:50.828Z,19.10
2023-09-08T03:24:20.452Z,19.20
2023-09-08T03:26:48.364Z,19.10
2023-09-08T03:29:16.401Z,18.80
2023-09-08T03:31:44.651Z,19.40
2023-09-08T03:34:12.919Z,18.70
2023-09-08T03:36:41.196Z,19.00
2023-09-08T03:39:10.435Z,18.70
2023-09-08T03:41:40.776Z,19.00
2023-09-08T03:44:08.705Z,18.80
2023-09-08T03:46:36.750Z,18.70
2023-09-08T03:49:04.738Z,18.50
2023-09-08T03:51:32.664Z,19.00
2023-09-08T03:54:01.040Z,18.90
2023-09-08T03:56:29.130Z,18.90
2023-09-08T03:58:58.423Z,18.90
2023-09-08T04:01:26.578Z,18.90
2023-09-08T04:03:54.565Z,18.90
2023-09-08T04:06:25.278Z,18.90
2023-09-08T04:08:53.451Z,18.80
2023-09-08T04:11:21.373Z,18.90
2023-09-08T04:13:49.414Z,18.90
2023-09-08T04:16:18.745Z,18.80
2023-09-08T04:18:47.328Z,18.80
2023-09-08T04:21:15.812Z,18.30
2023-09-08T04:23:43.814Z,18.80
2023-09-08T04:26:11.924Z,18.40
2023-09-08T04:28:39.870Z,18.70
2023-09-08T04:31:07.986Z,18.70
2023-09-08T04:33:37.783Z,18.70
2023-09-08T04:36:06.217Z,18.20
2023-09-08T04:38:34.098Z,18.70
2023-09-08T04:41:02.277Z,18.20
2023-09-08T04:43:30.339Z,18.70
2023-09-08T04:45:58.954Z,18.70
2023-09-08T04:48:28.558Z,18.70
2023-09-08T04:50:59.511Z,18.60
2023-09-08T04:53:27.511Z,18.60
2023-09-08T04:55:55.524Z,18.70
2023-09-08T04:58:23.592Z,18.60
2023-09-08T05:00:52.193Z,18.60
2023-09-08T05:03:20.315Z,18.50
2023-09-08T05:05:48.679Z,18.30
2023-09-08T05:08:18.025Z,18.50
2023-09-08T05:10:46.494Z,18.50
2023-09-08T05:13:29.039Z,18.30
2023-09-08T05:16:01.446Z,18.50
2023-09-08T05:18:29.624Z,18.40
2023-09-08T05:20:57.937Z,18.60
2023-09-08T05:23:27.255Z,18.50
2023-09-08T05:25:56.021Z,18.50
2023-09-08T05:28:23.962Z,18.50
2023-09-08T05:30:53.209Z,18.50
2023-09-08T05:33:21.272Z,18.50
2023-09-08T05:35:49.679Z,18.50
2023-09-08T05:38:17.820Z,18.40
2023-09-08T05:40:47.197Z,18.40
2023-09-08T05:43:15.243Z,18.50
2023-09-08T05:45:43.233Z,18.40
2023-09-08T05:48:11.316Z,18.60
2023-09-08T05:50:39.511Z,18.30
2023-09-08T05:53:07.489Z,18.70
2023-09-08T05:55:35.458Z,18.60
2023-09-08T05:58:04.926Z,18.70
2023-09-08T06:00:32.853Z,18.70
2023-09-08T06:03:02.067Z,18.70
2023-09-08T06:05:30.602Z,18.70
2023-09-08T06:08:07.307Z,18.70
2023-09-08T06:10:35.909Z,18.80
2023-09-08T06:13:05.504Z,18.80
2023-09-08T06:15:33.558Z,18.90
2023-09-08T06:18:01.735Z,18.80
2023-09-08T06:20:29.864Z,18.90
2023-09-08T06:22:58.234Z,18.40
2023-09-08T06:25:26.199Z,18.80
2023-09-08T06:27:54.348Z,18.60
2023-09-08T06:30:23.757Z,18.90
2023-09-08T06:32:54.070Z,18.80
2023-09-08T06:35:22.161Z,19.00
2023-09-08T06:37:50.606Z,19.10
2023-09-08T06:40:18.706Z,19.00
2023-09-08T06:42:46.695Z,18.80
2023-09-08T06:45:16.050Z,18.80
2023-09-08T06:47:45.661Z,19.10
2023-09-08T06:50:13.740Z,19.20
2023-09-08T06:52:43.010Z,19.20
2023-09-08T06:55:11.054Z,19.20
2023-09-08T06:57:40.089Z,19.30
2023-09-08T07:00:09.514Z,18.90
2023-09-08T07:02:38.568Z,19.40
2023-09-08T07:05:09.568Z,19.40
2023-09-08T07:07:38.160Z,19.30
2023-09-08T07:10:08.598Z,19.30
2023-09-08T07:12:36.807Z,19.60
2023-09-08T07:15:05.547Z,19.60
2023-09-08T07:17:33.558Z,19.70
2023-09-08T07:20:01.544Z,19.70
2023-09-08T07:22:30.938Z,19.80
2023-09-08T07:24:58.891Z,19.80
2023-09-08T07:27:26.906Z,20.10
2023-09-08T07:29:55.186Z,19.90
2023-09-08T07:32:23.429Z,20.00
2023-09-08T07:34:56.402Z,20.10
2023-09-08T07:37:25.691Z,20.40
2023-09-08T07:39:54.994Z,20.30
2023-09-08T07:42:24.593Z,20.40
2023-09-08T07:44:52.582Z,20.70
2023-09-08T07:47:20.804Z,20.70
2023-09-08T07:49:49.877Z,20.60
2023-09-08T07:52:17.850Z,20.80
2023-09-08T07:54:46.097Z,20.90
2023-09-08T07:57:15.530Z,21.00
2023-09-08T07:59:43.524Z,21.10
2023-09-08T08:02:12.150Z,21.20
2023-09-08T08:04:40.225Z,21.50
2023-09-08T08:07:08.371Z,21.40
2023-09-08T08:09:36.338Z,21.50
2023-09-08T08:12:04.411Z,21.60
2023-09-08T08:14:33.822Z,21.80
2023-09-08T08:17:01.769Z,21.90
2023-09-08T08:19:29.812Z,22.00
2023-09-08T08:21:58.335Z,22.20
2023-09-08T08:24:26.378Z,22.30
2023-09-08T08:26:54.410Z,22.40
2023-09-08T08:29:22.376Z,22.60
2023-09-08T08:31:51.897Z,22.80
2023-09-08T08:34:19.826Z,22.90
2023-09-08T08:36:47.920Z,23.00
2023-09-08T08:39:16.025Z,23.10
2023-09-08T08:41:44.357Z,23.40
2023-09-08T08:44:12.425Z,23.30
2023-09-08T08:46:41.206Z,23.40
2023-09-08T08:49:13.258Z,23.50
2023-09-08T08:51:44.492Z,23.60
2023-09-08T08:54:14.591Z,23.70
2023-09-08T08:56:44.193Z,23.70
2023-09-08T08:59:12.730Z,23.90
2023-09-08T09:01:43.673Z,23.90
2023-09-08T09:04:14.288Z,24.30
2023-09-08T09:06:42.294Z,24.10
2023-09-08T09:09:11.976Z,24.20
2023-09-08T09:11:39.929Z,24.20
2023-09-08T09:14:08.271Z,24.30
2023-09-08T09:16:42.600Z,24.40
2023-09-08T09:19:12.554Z,24.50
2023-09-08T09:21:47.222Z,24.60
2023-09-08T09:24:20.862Z,24.70
2023-09-08T09:26:53.708Z,24.80
2023-09-08T09:29:23.099Z,24.80
2023-09-08T09:31:54.700Z,24.90
2023-09-08T09:34:25.306Z,25.00
2023-09-08T09:36:54.054Z,25.10
2023-09-08T09:39:23.126Z,25.20
2023-09-08T09:41:54.970Z,25.30
2023-09-08T09:44:24.181Z,25.30
2023-09-08T09:46:55.521Z,25.50
2023-09-08T09:49:28.058Z,25.50
2023-09-08T09:51:56.784Z,25.70
2023-09-08T09:54:24.906Z,25.70
2023-09-08T09:56:54.010Z,25.80
2023-09-08T09:59:23.593Z,25.90
2023-09-08T10:01:52.028Z,26.00
2023-09-08T10:04:20.985Z,26.20
2023-09-08T10:06:52.765Z,26.20
2023-09-08T10:09:20.753Z,26.30
2023-09-08T10:11:50.956Z,26.30
2023-09-08T10:14:20.709Z,26.40
2023-09-08T10:16:53.505Z,26.50
2023-09-08T10:19:23.929Z,26.60
2023-09-08T10:21:56.754Z,26.70
2023-09-08T10:24:28.335Z,26.80
2023-09-08T10:27:00.760Z,26.90
2023-09-08T10:29:29.807Z,26.90
2023-09-08T10:31:59.269Z,27.00
2023-09-08T10:34:28.265Z,27.10
2023-09-08T10:36:58.105Z,27.20
2023-09-08T10:39:39.863Z,27.30
2023-09-08T10:42:25.733Z,27.40
2023-09-08T10:45:06.922Z,27.50
2023-09-08T10:47:41.667Z,27.60
2023-09-08T10:50:17.738Z,27.70
2023-09-08T10:52:48.203Z,27.80
2023-09-08T10:55:16.144Z,27.90
2023-09-08T10:57:47.503Z,28.00
2023-09-08T11:00:21.670Z,28.10
2023-09-08T11:02:51.426Z,28.30
2023-09-08T11:05:21.114Z,28.40
2023-09-08T11:07:53.629Z,28.50
2023-09-08T11:10:21.792Z,28.50
2023-09-08T11:12:52.106Z,28.60
2023-09-08T11:15:21.710Z,28.70
2023-09-08T11:17:52.052Z,28.90
2023-09-08T11:20:28.783Z,29.30
2023-09-08T11:22:58.313Z,29.70
2023-09-08T11:25:26.424Z,30.20
2023-09-08T11:27:54.620Z,30.70
2023-09-08T11:30:23.261Z,31.20
2023-09-08T11:32:52.249Z,31.80
2023-09-08T11:35:21.968Z,32.60
2023-09-08T11:37:54.195Z,33.50
2023-09-08T11:40:25.772Z,34.10
2023-09-08T11:42:55.937Z,34.50
2023-09-08T11:45:24.534Z,34.60
2023-09-08T11:47:54.880Z,34.50
2023-09-08T11:50:24.299Z,34.20
2023-09-08T11:52:53.653Z,33.90
2023-09-08T11:55:24.330Z,33.80
2023-09-08T11:57:58.275Z,33.50
2023-09-08T12:00:28.072Z,33.30
2023-09-08T12:02:56.453Z,33.00
2023-09-08T12:05:26.212Z,32.70
2023-09-08T12:07:57.294Z,32.50
2023-09-08T12:10:28.016Z,32.10
2023-09-08T12:13:01.204Z,31.90
2023-09-08T12:15:34.072Z,31.90
2023-09-08T12:18:02.765Z,31.80
2023-09-08T12:20:31.268Z,31.90
2023-09-08T12:23:01.167Z,31.80
2023-09-08T12:25:32.550Z,31.80
2023-09-08T12:28:01.121Z,31.70
2023-09-08T12:30:33.605Z,31.70
2023-09-08T12:33:03.469Z,31.90
2023-09-08T12:35:32.835Z,32.00
2023-09-08T12:38:02.260Z,32.20
2023-09-08T12:40:34.718Z,32.30
2023-09-08T12:43:04.968Z,32.40
2023-09-08T12:45:43.360Z,32.50
2023-09-08T12:48:11.527Z,32.60
2023-09-08T12:50:39.544Z,32.70
2023-09-08T12:53:07.600Z,32.90
2023-09-08T12:55:37.041Z,32.80
2023-09-08T12:58:05.249Z,33.00
2023-09-08T13:00:33.418Z,33.30
2023-09-08T13:03:03.068Z,34.00
2023-09-08T13:05:33.620Z,35.00
2023-09-08T13:08:02.962Z,36.00
2023-09-08T13:10:31.253Z,37.00
2023-09-08T13:13:00.847Z,37.80
2023-09-08T13:15:28.875Z,38.40
2023-09-08T13:17:57.666Z,38.90
2023-09-08T13:20:26.016Z,39.10
2023-09-08T13:22:54.140Z,39.50
2023-09-08T13:25:22.529Z,39.70
2023-09-08T13:27:50.553Z,39.80
2023-09-08T13:30:22.693Z,39.60
2023-09-08T13:32:50.756Z,39.20
2023-09-08T13:35:19.118Z,38.80
2023-09-08T13:37:47.253Z,38.70
2023-09-08T13:40:15.435Z,38.70
2023-09-08T13:42:44.024Z,38.40
2023-09-08T13:45:13.062Z,38.20
2023-09-08T13:47:42.891Z,37.80
2023-09-08T13:50:13.135Z,37.50
2023-09-08T13:52:43.733Z,37.20
2023-09-08T13:55:34.923Z,36.90
2023-09-08T13:58:02.092Z,36.90
2023-09-08T14:00:31.927Z,36.80
2023-09-08T14:03:06.508Z,36.80
2023-09-08T14:05:37.664Z,36.50
2023-09-08T14:08:16.948Z,36.60
2023-09-08T14:13:18.090Z,38.00
2023-09-08T14:15:46.225Z,38.90
2023-09-08T14:18:16.369Z,39.40
2023-09-08T14:20:44.924Z,39.70
2023-09-08T14:23:12.843Z,39.20
2023-09-08T14:25:40.798Z,38.10
2023-09-08T14:28:08.946Z,36.50
2023-09-08T14:30:37.055Z,35.10
2023-09-08T14:33:05.885Z,33.80
2023-09-08T14:35:35.278Z,32.60
2023-09-08T14:38:04.157Z,31.80
2023-09-08T14:40:32.837Z,31.20
2023-09-08T14:43:00.840Z,30.60
2023-09-08T14:45:29.074Z,30.20
2023-09-08T14:48:00.288Z,29.80
2023-09-08T14:50:29.539Z,29.60
2023-09-08T14:52:58.951Z,29.30
2023-09-08T14:55:27.119Z,29.20
2023-09-08T14:57:55.940Z,28.90
2023-09-08T15:00:24.145Z,28.70
2023-09-08T15:02:52.261Z,28.60
2023-09-08T15:05:20.318Z,28.50
2023-09-08T15:07:48.255Z,28.40
2023-09-08T15:10:17.840Z,28.30
2023-09-08T15:12:45.801Z,28.20
2023-09-08T15:15:13.732Z,28.10
2023-09-08T15:17:41.870Z,28.00
2023-09-08T15:20:10.769Z,27.90
2023-09-08T15:22:38.913Z,27.90
2023-09-08T15:25:08.247Z,28.10
2023-09-08T15:27:37.491Z,27.90
2023-09-08T15:30:06.978Z,28.00
2023-09-08T15:32:35.008Z,27.80
2023-09-08T15:35:04.133Z,27.80
2023-09-08T15:37:32.149Z,27.80
2023-09-08T15:40:00.368Z,27.70
2023-09-08T15:42:28.324Z,27.60
2023-09-08T15:44:58.052Z,27.50
2023-09-08T15:47:25.995Z,27.50
2023-09-08T15:49:53.915Z,27.40
2023-09-08T15:52:21.917Z,27.40
2023-09-08T15:54:50.093Z,27.40
2023-09-08T15:57:17.982Z,27.40
2023-09-08T15:59:46.566Z,27.30
2023-09-08T16:02:15.888Z,27.30
2023-09-08T16:04:44.192Z,27.40
2023-09-08T16:07:12.291Z,27.30
2023-09-08T16:09:40.431Z,27.20
2023-09-08T16:12:08.748Z,27.30
2023-09-08T16:14:36.838Z,27.20
2023-09-08T16:17:05.235Z,27.20
2023-09-08T16:19:34.700Z,27.10
2023-09-08T16:22:02.930Z,27.10
2023-09-08T16:24:30.950Z,27.10
2023-09-08T16:27:01.654Z,27.10
2023-09-08T16:29:30.098Z,27.10
2023-09-08T16:31:58.606Z,27.00
2023-09-08T16:34:27.053Z,27.00
2023-09-08T16:36:56.386Z,27.00
2023-09-08T16:39:24.688Z,27.00
2023-09-08T16:41:52.714Z,26.90
2023-09-08T16:44:20.672Z,26.80
2023-09-08T16:46:48.624Z,26.80
2023-09-08T16:49:18.114Z,26.80
2023-09-08T16:51:46.071Z,26.80
2023-09-08T16:54:15.509Z,26.70
2023-09-08T16:56:43.776Z,26.70
2023-09-08T16:59:11.727Z,26.60
2023-09-08T17:01:39.939Z,26.60
2023-09-08T17:04:11.032Z,26.50
2023-09-08T17:06:39.678Z,26.50
2023-09-08T17:09:09.377Z,26.50
2023-09-08T17:11:41.175Z,26.50
2023-09-08T17:14:09.734Z,26.50
2023-09-08T17:16:37.864Z,26.40
2023-09-08T17:19:07.302Z,26.30
2023-09-08T17:21:35.945Z,26.30
2023-09-08T17:24:04.459Z,26.20
2023-09-08T17:26:32.587Z,26.20
2023-09-08T17:29:04.236Z,26.20
2023-09-08T17:31:32.519Z,26.20
2023-09-08T17:34:00.749Z,26.10
2023-09-08T17:36:30.421Z,26.10
2023-09-08T17:38:58.516Z,26.00
2023-09-08T17:41:26.712Z,26.00
2023-09-08T17:43:54.654Z,26.00
2023-09-08T17:46:24.443Z,26.10
2023-09-08T17:48:52.657Z,25.90
2023-09-08T17:51:22.251Z,25.80
2023-09-08T17:53:50.227Z,25.80
2023-09-08T17:56:18.236Z,25.80
2023-09-08T17:58:46.149Z,25.70
2023-09-08T18:01:14.166Z,25.60
2023-09-08T18:03:44.194Z,25.60
2023-09-08T18:06:12.474Z,25.50
2023-09-08T18:08:41.105Z,25.40
2023-09-08T18:11:09.554Z,25.30
2023-09-08T18:13:37.962Z,25.30
2023-09-08T18:16:06.766Z,25.20
2023-09-08T18:18:35.428Z,25.30
2023-09-08T18:21:04.875Z,25.10
2023-09-08T18:23:32.904Z,25.10
2023-09-08T18:26:01.278Z,25.00
2023-09-08T18:28:29.312Z,25.00
2023-09-08T18:30:57.532Z,24.90
2023-09-08T18:33:26.381Z,24.90
2023-09-08T18:35:54.408Z,24.80
2023-09-08T18:38:24.138Z,24.80
2023-09-08T18:40:53.408Z,24.70
2023-09-08T18:43:21.597Z,24.70
2023-09-08T18:45:49.604Z,24.60
2023-09-08T18:48:17.753Z,24.60
2023-09-08T18:50:46.048Z,24.50
2023-09-08T18:53:14.067Z,24.40
2023-09-08T18:55:43.561Z,24.40
2023-09-08T18:58:11.571Z,24.60
2023-09-08T19:00:45.255Z,24.30
2023-09-08T19:03:13.505Z,24.50
2023-09-08T19:05:42.536Z,24.20
2023-09-08T19:08:10.863Z,24.30
2023-09-08T19:10:38.802Z,24.20
2023-09-08T19:13:08.260Z,24.20
2023-09-08T19:15:36.187Z,24.20
2023-09-08T19:18:04.948Z,24.10
2023-09-08T19:20:33.070Z,24.10
2023-09-08T19:23:01.159Z,24.10
2023-09-08T19:25:29.278Z,24.10
2023-09-08T19:27:57.925Z,24.00
2023-09-08T19:30:27.420Z,24.10
2023-09-08T19:32:55.448Z,23.90
2023-09-08T19:35:23.740Z,24.00
2023-09-08T19:37:52.049Z,23.90
2023-09-08T19:40:20.181Z,23.80
2023-09-08T19:42:48.057Z,24.00
2023-09-08T19:45:16.640Z,23.70
2023-09-08T19:47:46.016Z,23.70
2023-09-08T19:50:13.999Z,23.60
2023-09-08T19:52:42.251Z,23.60
2023-09-08T19:55:10.906Z,23.60
2023-09-08T19:57:44.112Z,23.50
2023-09-08T20:00:14.377Z,23.40
2023-09-08T20:02:46.093Z,23.40
2023-09-08T20:05:14.139Z,23.30
2023-09-08T20:07:42.212Z,23.30
2023-09-08T20:10:12.182Z,23.20
2023-09-08T20:12:42.514Z,23.10
2023-09-08T20:15:11.588Z,23.10
2023-09-08T20:17:40.679Z,23.00
2023-09-08T20:20:16.423Z,22.90
2023-09-08T20:22:44.452Z,22.90
2023-09-08T20:25:12.473Z,22.90
2023-09-08T20:27:40.693Z,22.90
2023-09-08T20:30:09.746Z,22.90
2023-09-08T20:32:37.783Z,22.90
2023-09-08T20:35:07.125Z,22.80
2023-09-08T20:37:36.753Z,22.80
2023-09-08T20:40:06.409Z,22.70
2023-09-08T20:42:34.491Z,22.80
2023-09-08T20:45:02.523Z,22.60
2023-09-08T20:47:30.551Z,22.60
2023-09-08T20:49:58.789Z,22.50
2023-09-08T20:52:26.845Z,22.40
2023-09-08T20:54:56.312Z,22.40
2023-09-08T20:57:26.093Z,22.30
2023-09-08T20:59:54.183Z,22.30
2023-09-08T21:02:22.145Z,22.30
2023-09-08T21:04:50.480Z,22.50
2023-09-08T21:07:18.559Z,22.30
2023-09-08T21:09:49.182Z,22.20
2023-09-08T21:12:18.670Z,22.20
2023-09-08T21:14:47.858Z,22.20
2023-09-08T21:17:15.875Z,22.10
2023-09-08T21:19:43.923Z,22.10
2023-09-08T21:22:12.523Z,22.00
2023-09-08T21:24:40.638Z,22.00
2023-09-08T21:27:08.629Z,22.00
2023-09-08T21:29:38.233Z,22.00
2023-09-08T21:32:06.789Z,21.90
2023-09-08T21:34:34.986Z,21.90
2023-09-08T21:37:03.052Z,21.40
2023-09-08T21:39:31.036Z,21.90
2023-09-08T21:42:00.888Z,21.90
2023-09-08T21:44:30.418Z,21.80
2023-09-08T21:47:00.193Z,21.80
2023-09-08T21:49:28.404Z,21.80
2023-09-08T21:51:56.823Z,21.80
2023-09-08T21:54:26.105Z,21.80
2023-09-08T21:56:54.295Z,21.80
2023-09-08T21:59:22.313Z,21.80
2023-09-08T22:01:50.695Z,21.80
2023-09-08T22:04:21.111Z,21.80
2023-09-08T22:06:49.936Z,21.80
2023-09-08T22:09:18.946Z,21.80
2023-09-08T22:11:48.107Z,21.80
2023-09-08T22:14:16.400Z,21.70
2023-09-08T22:16:44.400Z,21.70
2023-09-08T22:19:12.890Z,21.70
2023-09-08T22:21:45.241Z,21.60
2023-09-08T22:24:13.589Z,21.60
2023-09-08T22:26:41.703Z,21.50
2023-09-08T22:29:10.264Z,21.50
2023-09-08T22:31:38.529Z,21.50
2023-09-08T22:34:06.900Z,21.70
2023-09-08T22:36:35.050Z,21.40
2023-09-08T22:39:05.927Z,21.50
2023-09-08T22:41:34.259Z,21.30
2023-09-08T22:44:02.346Z,21.40
2023-09-08T22:46:30.526Z,21.50
2023-09-08T22:48:58.595Z,21.30
2023-09-08T22:51:26.538Z,21.30
2023-09-08T22:53:55.388Z,21.30
2023-09-08T22:56:24.689Z,21.20
2023-09-08T22:58:52.690Z,21.20
2023-09-08T23:01:21.202Z,21.30
2023-09-08T23:03:49.461Z,20.80
2023-09-08T23:06:17.468Z,21.20
2023-09-08T23:08:45.327Z,21.20
2023-09-08T23:11:13.285Z,21.10
2023-09-08T23:13:42.801Z,21.10
2023-09-08T23:16:13.951Z,21.10
2023-09-08T23:18:42.251Z,21.00
2023-09-08T23:21:12.313Z,21.20
2023-09-08T23:23:40.445Z,21.00
2023-09-08T23:26:08.483Z,21.10
2023-09-08T23:28:38.196Z,21.10
2023-09-08T23:31:07.934Z,21.20
2023-09-08T23:33:36.569Z,21.20
2023-09-08T23:36:05.277Z,21.00
2023-09-08T23:38:33.484Z,21.00
2023-09-08T23:41:01.525Z,21.00
2023-09-08T23:43:29.577Z,20.90
2023-09-08T23:45:57.647Z,20.90
2023-09-08T23:48:27.188Z,20.90
2023-09-08T23:50:58.359Z,20.90
2023-09-08T23:53:27.316Z,20.80
2023-09-08T23:55:56.209Z,20.90
2023-09-08T23:58:24.355Z,20.50
